Time;durP1;ratioP1;P1;durP2;ratioP2;P2;SDS_P1;SDS_P2;PMS_P1;PMS_P2;Temp;Humidity;BMP_temperature;BMP_pressure;BME280_temperature;BME280_humidity;BME280_pressure;Samples;Min_cycle;Max_cycle;Signal;HPM_P1;HPM_P2
2022/01/02 00:01:48;;;;;;;4.00;2.90;;;-3.50;93.30;;;;;;4996542;28;20022;-79
2022/01/02 00:04:16;;;;;;;5.75;2.50;;;-3.50;93.30;;;;;;4999407;28;20496;-80
2022/01/02 00:06:47;;;;;;;3.40;2.58;;;-3.40;93.30;;;;;;5004757;28;20027;-79
2022/01/02 00:09:24;;;;;;;4.40;2.75;;;-3.50;92.90;;;;;;5012290;28;20022;-79
2022/01/02 00:11:51;;;;;;;;;;;-3.50;93.00;;;;;;5006447;28;20027;-80
2022/01/02 00:14:20;;;;;;;7.40;3.03;;;-3.50;92.90;;;;;;4997711;28;19909;-79
2022/01/02 00:16:46;;;;;;;3.67;2.88;;;-3.60;92.80;;;;;;4996793;28;20041;-80
2022/01/02 00:19:20;;;;;;;4.15;1.80;;;-3.60;92.90;;;;;;4997848;28;20022;-80
2022/01/02 00:21:48;;;;;;;5.60;2.33;;;-3.60;93.00;;;;;;4997258;28;20037;-79
2022/01/02 00:24:18;;;;;;;;;;;-3.60;93.30;;;;;;4995779;28;20037;-82
2022/01/02 00:26:48;;;;;;;3.38;1.67;;;-3.70;92.70;;;;;;4995081;28;19913;-81
2022/01/02 00:29:13;;;;;;;3.85;2.08;;;-3.70;92.00;;;;;;4995058;28;20029;-81
2022/01/02 00:31:40;;;;;;;4.43;2.55;;;-3.80;91.30;;;;;;4993786;28;20468;-80
2022/01/02 00:34:07;;;;;;;4.57;2.28;;;-3.80;91.60;;;;;;4993459;28;20041;-79
2022/01/02 00:36:33;;;;;;;3.40;1.80;;;-3.80;91.90;;;;;;4994698;28;20022;-80
2022/01/02 00:38:59;;;;;;;3.08;2.28;;;-3.80;91.70;;;;;;4994418;28;20051;-79
2022/01/02 00:41:51;;;;;;;3.17;2.17;;;-3.80;91.40;;;;;;4994867;28;20333;-80
2022/01/02 00:44:44;;;;;;;3.15;1.75;;;-3.80;91.20;;;;;;4993370;28;20088;-79
2022/01/02 00:47:44;;;;;;;2.90;2.10;;;-3.80;90.70;;;;;;4995079;28;20022;-79
2022/01/02 00:50:14;;;;;;;3.75;2.10;;;-3.80;91.00;;;;;;4977445;28;20033;-81
2022/01/02 00:52:42;;;;;;;4.03;2.28;;;-3.80;90.90;;;;;;4996024;28;20015;-80
2022/01/02 00:55:12;;;;;;;3.75;1.85;;;-3.80;91.10;;;;;;4995745;28;20396;-80
2022/01/02 00:57:42;;;;;;;3.05;2.25;;;-3.80;91.20;;;;;;5010429;28;20431;-79
2022/01/02 01:00:15;;;;;;;2.97;2.25;;;-3.80;91.30;;;;;;4995792;28;20062;-80
2022/01/02 01:02:53;;;;;;;4.43;3.00;;;-3.80;91.60;;;;;;4996941;28;20054;-81
2022/01/02 01:05:28;;;;;;;5.20;2.33;;;-3.80;91.90;;;;;;4995409;28;20130;-79
2022/01/02 01:08:04;;;;;;;3.50;2.05;;;-3.80;92.30;;;;;;4994494;28;20030;-81
2022/01/02 01:10:32;;;;;;;4.38;2.13;;;-3.90;92.70;;;;;;4994266;28;20030;-79
2022/01/02 01:13:03;;;;;;;4.30;2.65;;;-3.90;93.10;;;;;;4994714;28;20030;-80
2022/01/02 01:15:30;;;;;;;4.63;3.03;;;-3.90;93.40;;;;;;4995403;28;20060;-80
2022/01/02 01:17:58;;;;;;;3.50;2.10;;;-3.90;93.60;;;;;;4994241;28;20022;-81
2022/01/02 01:20:26;;;;;;;3.72;2.47;;;-4.00;93.50;;;;;;4993131;28;20038;-80
2022/01/02 01:22:52;;;;;;;3.22;2.25;;;-4.00;93.60;;;;;;4993942;28;20382;-79
2022/01/02 01:25:19;;;;;;;3.80;2.60;;;-4.00;93.10;;;;;;4992523;28;20026;-80
2022/01/02 01:27:47;;;;;;;3.88;2.72;;;-4.10;92.60;;;;;;4993487;28;20038;-80
2022/01/02 01:30:15;;;;;;;4.18;2.22;;;-4.00;92.90;;;;;;4993724;28;20030;-80
2022/01/02 01:32:41;;;;;;;3.67;2.38;;;-4.00;92.70;;;;;;4992413;28;20102;-81
2022/01/02 01:35:08;;;;;;;2.80;2.42;;;-4.10;92.50;;;;;;4992549;28;20040;-80
2022/01/02 01:37:34;;;;;;;4.68;2.45;;;-4.10;92.50;;;;;;4992525;28;20391;-80
2022/01/02 01:40:00;;;;;;;3.58;2.75;;;-4.10;92.70;;;;;;4993301;28;20137;-79
2022/01/02 01:42:41;;;;;;;4.43;2.65;;;-4.20;92.60;;;;;;4991972;28;20138;-80
2022/01/02 01:47:43;;;;;;;;;;;-4.30;92.40;;;;;;4993737;28;20357;-81
2022/01/02 01:50:10;;;;;;;4.18;2.35;;;-4.30;92.50;;;;;;4993953;28;19961;-80
2022/01/02 01:52:36;;;;;;;3.10;2.75;;;-4.40;92.80;;;;;;4993552;28;20038;-80
2022/01/02 01:55:02;;;;;;;8.95;3.28;;;-4.40;92.80;;;;;;4993624;28;20542;-80
2022/01/02 01:57:28;;;;;;;2.80;2.53;;;-4.40;92.60;;;;;;4998673;28;20061;-80
2022/01/02 01:59:54;;;;;;;3.75;2.65;;;-4.40;92.40;;;;;;4994766;28;20449;-79
2022/01/02 02:02:21;;;;;;;3.55;2.60;;;-4.40;92.30;;;;;;4993449;28;20022;-79
2022/01/02 02:04:47;;;;;;;3.63;2.50;;;-4.30;92.30;;;;;;4993928;28;20468;-80
2022/01/02 02:07:14;;;;;;;3.20;2.90;;;-4.40;92.10;;;;;;4992343;28;20052;-81
2022/01/02 02:09:59;;;;;;;3.83;3.38;;;-4.40;92.30;;;;;;4993327;28;20081;-80
2022/01/02 02:12:26;;;;;;;5.90;2.38;;;-4.40;92.30;;;;;;4993432;28;20034;-81
2022/01/02 02:14:52;;;;;;;4.20;2.63;;;-4.40;92.20;;;;;;4994632;28;20045;-81
2022/01/02 02:17:17;;;;;;;3.58;2.15;;;-4.40;91.60;;;;;;5000859;28;20022;-79
2022/01/02 02:19:43;;;;;;;3.25;2.33;;;-4.40;92.00;;;;;;5002923;28;20034;-79
2022/01/02 02:22:09;;;;;;;3.15;2.20;;;-4.40;92.30;;;;;;5001575;28;20023;-79
2022/01/02 02:24:35;;;;;;;2.95;2.13;;;-4.40;92.20;;;;;;4997518;28;20084;-79
2022/01/02 02:27:01;;;;;;;3.95;2.58;;;-4.40;92.00;;;;;;4989987;28;20447;-79
2022/01/02 02:29:27;;;;;;;2.63;2.20;;;-4.40;92.00;;;;;;4973564;28;20023;-80
2022/01/02 02:31:55;;;;;;;3.75;2.85;;;-4.40;92.00;;;;;;4973613;28;20022;-80
2022/01/02 02:34:21;;;;;;;3.28;2.25;;;-4.40;92.20;;;;;;4973732;28;20022;-80
2022/01/02 02:36:47;;;;;;;2.38;1.83;;;-4.40;92.50;;;;;;4973529;28;20074;-81
2022/01/02 02:39:12;;;;;;;4.22;3.40;;;-4.40;92.70;;;;;;4973295;28;20408;-80
2022/01/02 02:41:41;;;;;;;2.90;2.50;;;-4.40;92.80;;;;;;4975555;28;20029;-80
2022/01/02 02:44:18;;;;;;;4.05;2.83;;;-4.40;92.90;;;;;;4992881;28;20387;-81
2022/01/02 02:49:29;;;;;;;3.13;2.70;;;-4.40;93.00;;;;;;4996051;28;20092;-80
2022/01/02 02:52:01;;;;;;;4.47;3.58;;;-4.40;93.20;;;;;;4993859;28;20030;-80
2022/01/02 02:54:30;;;;;;;6.25;3.10;;;-4.40;93.10;;;;;;4991915;28;20411;-80
2022/01/02 02:56:58;;;;;;;3.63;3.00;;;-4.40;93.00;;;;;;4999978;28;20042;-79
2022/01/02 02:59:30;;;;;;;4.60;3.15;;;-4.40;93.30;;;;;;4998276;28;20149;-81
2022/01/02 03:01:56;;;;;;;4.05;2.95;;;-4.50;93.20;;;;;;4997260;28;20105;-79
2022/01/02 03:04:24;;;;;;;2.92;2.63;;;-4.50;92.90;;;;;;4997381;28;20058;-81
2022/01/02 03:06:50;;;;;;;3.42;2.65;;;-4.50;92.90;;;;;;4998246;28;20121;-80
2022/01/02 03:09:26;;;;;;;5.53;2.50;;;-4.50;92.80;;;;;;4999347;28;20694;-81
2022/01/02 03:11:52;;;;;;;3.70;2.55;;;-4.50;92.70;;;;;;4996663;28;20023;-81
2022/01/02 03:14:18;;;;;;;2.25;1.77;;;-4.50;92.60;;;;;;4996636;28;20388;-80
2022/01/02 03:16:43;;;;;;;3.92;2.60;;;-4.50;92.40;;;;;;4997541;28;20022;-79
2022/01/02 03:19:09;;;;;;;3.67;2.50;;;-4.60;92.40;;;;;;4996598;28;20116;-81
2022/01/02 03:21:35;;;;;;;3.38;3.03;;;-4.60;92.30;;;;;;4995375;28;20040;-79
2022/01/02 03:24:01;;;;;;;4.82;2.20;;;-4.60;92.30;;;;;;4996178;28;20061;-80
2022/01/02 03:26:27;;;;;;;3.85;2.35;;;-4.50;92.30;;;;;;4996111;28;20041;-81
2022/01/02 03:28:53;;;;;;;3.47;2.35;;;-4.50;92.20;;;;;;4996180;28;20434;-79
2022/01/02 03:31:18;;;;;;;4.32;3.45;;;-4.60;92.20;;;;;;4995999;28;20046;-81
2022/01/02 03:33:44;;;;;;;4.22;2.75;;;-4.60;92.40;;;;;;4994772;28;20391;-80
2022/01/02 03:36:10;;;;;;;3.58;2.97;;;-4.60;92.20;;;;;;4996012;28;20026;-79
2022/01/02 03:38:36;;;;;;;3.80;2.50;;;-4.60;92.00;;;;;;4995610;28;20128;-79
2022/01/02 03:41:02;;;;;;;3.45;3.15;;;-4.60;91.70;;;;;;4995967;28;20045;-81
2022/01/02 03:43:28;;;;;;;3.17;2.80;;;-4.60;91.80;;;;;;4995704;28;20547;-81
2022/01/02 03:45:54;;;;;;;4.93;2.67;;;-4.60;91.40;;;;;;4995772;28;20460;-80
2022/01/02 03:48:20;;;;;;;3.75;1.90;;;-4.60;91.10;;;;;;4995760;28;20058;-81
2022/01/02 03:50:46;;;;;;;2.88;2.30;;;-4.60;91.20;;;;;;4995747;28;20438;-80
2022/01/02 03:53:11;;;;;;;3.25;2.00;;;-4.70;91.30;;;;;;4995587;28;20074;-80
2022/01/02 03:55:39;;;;;;;3.55;2.15;;;-4.70;91.60;;;;;;4995716;28;20494;-79
2022/01/02 03:58:05;;;;;;;2.60;2.22;;;-4.70;91.60;;;;;;4994320;28;20025;-81
2022/01/02 04:00:31;;;;;;;2.70;1.83;;;-4.70;91.40;;;;;;4995536;28;20066;-80
2022/01/02 04:02:57;;;;;;;2.60;1.60;;;-4.70;91.20;;;;;;4995598;28;20573;-78
2022/01/02 04:05:23;;;;;;;2.70;1.98;;;-4.70;91.40;;;;;;4994779;28;20476;-80
2022/01/02 04:07:49;;;;;;;4.55;2.55;;;-4.70;91.40;;;;;;4996614;28;20502;-79
2022/01/02 04:10:17;;;;;;;2.75;2.42;;;-4.70;91.20;;;;;;4995811;28;20041;-79
2022/01/02 04:12:43;;;;;;;3.25;2.83;;;-4.60;91.10;;;;;;4995832;28;20484;-79
2022/01/02 04:15:11;;;;;;;3.53;2.38;;;-4.70;90.70;;;;;;4995432;28;20038;-81
2022/01/02 04:17:37;;;;;;;5.78;2.88;;;-4.70;90.90;;;;;;4995518;28;20535;-80
2022/01/02 04:20:08;;;;;;;3.13;2.70;;;-4.70;90.70;;;;;;4995357;28;20058;-78
2022/01/02 04:22:35;;;;;;;3.83;2.38;;;-4.80;91.30;;;;;;4994853;28;20561;-79
2022/01/02 04:25:01;;;;;;;3.30;1.90;;;-4.80;90.90;;;;;;4998203;28;20022;-77
2022/01/02 04:27:27;;;;;;;2.92;2.63;;;-4.80;91.10;;;;;;5012432;28;20098;-80
2022/01/02 04:29:53;;;;;;;3.00;2.70;;;-4.80;91.00;;;;;;5006363;28;20072;-80
2022/01/02 04:32:19;;;;;;;2.78;2.17;;;-4.80;90.70;;;;;;5000880;28;20046;-80
2022/01/02 04:34:45;;;;;;;3.03;2.35;;;-4.90;91.00;;;;;;4996457;28;20123;-78
2022/01/02 04:37:12;;;;;;;4.57;3.60;;;-4.90;91.50;;;;;;4995914;28;20035;-81
2022/01/02 04:39:39;;;;;;;7.43;2.47;;;-4.90;92.00;;;;;;4995363;28;20050;-80
2022/01/02 04:42:06;;;;;;;4.82;3.13;;;-5.00;92.50;;;;;;4993912;28;20027;-78
2022/01/02 04:44:31;;;;;;;7.70;2.80;;;-5.00;92.90;;;;;;4993944;28;20026;-81
2022/01/02 04:46:57;;;;;;;8.15;2.72;;;-5.10;93.30;;;;;;4994937;28;20267;-79
2022/01/02 04:49:23;;;;;;;3.67;2.17;;;-5.10;93.60;;;;;;4995065;28;20102;-80
2022/01/02 04:51:51;;;;;;;3.00;2.45;;;-5.20;93.90;;;;;;4993917;28;20125;-79
2022/01/02 04:54:17;;;;;;;5.65;3.10;;;-5.20;94.00;;;;;;4998930;28;20033;-80
2022/01/02 04:56:42;;;;;;;3.53;2.60;;;-5.20;94.10;;;;;;4999057;28;20473;-79
2022/01/02 04:59:08;;;;;;;3.83;2.38;;;-5.30;94.10;;;;;;4994793;28;20423;-80
2022/01/02 05:01:34;;;;;;;2.90;1.70;;;-5.40;94.00;;;;;;4994431;28;20102;-80
2022/01/02 05:04:00;;;;;;;15.95;2.97;;;-5.40;94.10;;;;;;4994398;28;20385;-80
2022/01/02 05:06:26;;;;;;;3.40;2.20;;;-5.50;94.20;;;;;;4993281;28;20081;-79
2022/01/02 05:08:51;;;;;;;9.68;2.28;;;-5.50;94.20;;;;;;4993042;28;20038;-79
2022/01/02 05:11:17;;;;;;;5.88;2.60;;;-5.50;94.30;;;;;;4994140;28;20025;-80
2022/01/02 05:13:44;;;;;;;3.22;2.10;;;-5.50;94.30;;;;;;4994725;28;20100;-80
2022/01/02 05:16:10;;;;;;;1.63;1.48;;;-5.50;93.80;;;;;;4994627;28;20037;-80
2022/01/02 05:18:36;;;;;;;6.87;2.47;;;-5.60;93.30;;;;;;4995017;28;20026;-79
2022/01/02 05:21:02;;;;;;;2.88;1.73;;;-5.60;93.10;;;;;;5008433;28;20296;-80
2022/01/02 05:23:29;;;;;;;4.43;2.15;;;-5.60;93.20;;;;;;4993747;28;20019;-80
2022/01/02 05:25:55;;;;;;;1.35;1.20;;;-5.70;93.10;;;;;;4993688;28;20026;-80
2022/01/02 05:28:22;;;;;;;2.97;1.85;;;-5.70;92.80;;;;;;4993680;28;20029;-80
2022/01/02 05:30:47;;;;;;;2.97;2.15;;;-5.80;92.90;;;;;;4993650;28;20030;-79
2022/01/02 05:33:13;;;;;;;4.88;2.20;;;-5.80;92.60;;;;;;4993550;28;20030;-80
2022/01/02 05:35:39;;;;;;;2.63;2.03;;;-5.80;92.80;;;;;;4993694;28;20045;-80
2022/01/02 05:38:05;;;;;;;2.20;1.95;;;-5.80;92.70;;;;;;4992423;28;20472;-80
2022/01/02 05:40:32;;;;;;;7.55;2.53;;;-5.80;92.80;;;;;;4993397;28;20057;-81
2022/01/02 05:43:03;;;;;;;3.08;2.45;;;-5.80;92.80;;;;;;4993451;28;20094;-80
2022/01/02 05:45:29;;;;;;;4.32;2.45;;;-5.80;92.60;;;;;;4993451;28;20022;-79
2022/01/02 05:47:55;;;;;;;3.17;2.28;;;-5.80;92.60;;;;;;4993994;28;20038;-80
2022/01/02 05:50:21;;;;;;;6.35;2.80;;;-5.70;92.90;;;;;;4994028;28;20033;-78
2022/01/02 05:52:46;;;;;;;4.75;1.85;;;-5.70;93.00;;;;;;4993024;28;20052;-79
2022/01/02 05:55:12;;;;;;;4.32;2.38;;;-5.60;93.20;;;;;;4992960;28;20018;-79
2022/01/02 05:57:38;;;;;;;6.97;2.95;;;-5.60;93.30;;;;;;5007662;28;20096;-81
2022/01/02 06:00:05;;;;;;;5.30;3.65;;;-5.50;93.40;;;;;;4992541;28;20492;-80
2022/01/02 06:02:31;;;;;;;3.85;2.13;;;-5.50;93.30;;;;;;4993146;28;20041;-81
2022/01/02 06:05:02;;;;;;;2.20;1.90;;;-5.50;93.40;;;;;;4992422;28;20030;-80
2022/01/02 06:07:31;;;;;;;8.20;3.40;;;-5.50;93.50;;;;;;4992316;28;20073;-80
2022/01/02 06:09:58;;;;;;;5.18;3.20;;;-5.50;93.20;;;;;;4992896;28;20048;-81
2022/01/02 06:12:23;;;;;;;8.38;3.78;;;-5.50;93.20;;;;;;4992121;28;20032;-80
2022/01/02 06:14:49;;;;;;;3.75;2.42;;;-5.60;93.30;;;;;;4993023;28;20026;-80
2022/01/02 06:17:15;;;;;;;5.38;3.55;;;-5.60;93.40;;;;;;4993201;28;20019;-80
2022/01/02 06:19:41;;;;;;;4.72;2.45;;;-5.60;93.40;;;;;;4992715;28;20046;-80
2022/01/02 06:22:07;;;;;;;4.80;1.90;;;-5.60;93.10;;;;;;4992302;28;20026;-80
2022/01/02 06:24:33;;;;;;;5.05;2.88;;;-5.60;93.10;;;;;;4992347;28;20057;-80
2022/01/02 06:26:58;;;;;;;6.15;3.35;;;-5.60;93.30;;;;;;4991290;28;20448;-80
2022/01/02 06:29:24;;;;;;;4.45;3.10;;;-5.60;93.20;;;;;;4992716;28;20050;-81
2022/01/02 06:31:51;;;;;;;4.97;2.63;;;-5.60;93.20;;;;;;4995314;28;20027;-79
2022/01/02 06:34:16;;;;;;;5.25;2.97;;;-5.60;93.00;;;;;;5007644;28;20030;-78
2022/01/02 06:36:42;;;;;;;3.40;2.45;;;-5.60;93.20;;;;;;5013881;28;20086;-79
2022/01/02 06:39:08;;;;;;;2.97;2.05;;;-5.60;93.30;;;;;;4955695;28;1253844;-79
2022/01/02 06:41:34;;;;;;;3.20;2.47;;;-5.60;93.30;;;;;;4995150;28;20066;-80
2022/01/02 06:44:00;;;;;;;5.07;3.30;;;-5.60;93.30;;;;;;4993849;28;20038;-79
2022/01/02 06:46:25;;;;;;;3.80;2.33;;;-5.50;93.60;;;;;;4993008;28;20049;-80
2022/01/02 06:49:00;;;;;;;7.93;2.95;;;-5.50;93.60;;;;;;4992877;28;20472;-82
2022/01/02 06:51:26;;;;;;;8.15;2.35;;;-5.50;93.60;;;;;;4992969;28;20038;-80
2022/01/02 06:53:52;;;;;;;2.85;2.17;;;-5.60;93.60;;;;;;4993328;28;20022;-80
2022/01/02 06:56:17;;;;;;;7.78;3.08;;;-5.60;93.80;;;;;;4992676;28;20518;-81
2022/01/02 06:58:43;;;;;;;3.13;2.38;;;-5.70;94.00;;;;;;4992771;28;20037;-77
2022/01/02 07:01:09;;;;;;;5.88;2.25;;;-5.70;94.20;;;;;;4992974;28;20034;-79
2022/01/02 07:03:35;;;;;;;3.58;1.83;;;-5.80;93.80;;;;;;4993115;28;20357;-81
2022/01/02 07:06:00;;;;;;;4.90;2.80;;;-5.80;93.70;;;;;;4992962;28;20022;-78
2022/01/02 07:08:28;;;;;;;2.47;2.25;;;-5.90;93.70;;;;;;4992842;28;20035;-80
2022/01/02 07:10:57;;;;;;;2.45;1.58;;;-5.90;93.10;;;;;;4991932;28;20026;-80
2022/01/02 07:13:23;;;;;;;3.20;1.60;;;-5.90;93.10;;;;;;4992839;28;20023;-80
2022/01/02 07:15:49;;;;;;;3.75;2.25;;;-5.90;93.10;;;;;;4991367;28;20468;-80
2022/01/02 07:18:15;;;;;;;6.75;2.40;;;-5.90;93.10;;;;;;4994786;28;20022;-80
2022/01/02 07:20:41;;;;;;;3.90;1.95;;;-5.90;93.20;;;;;;4996495;28;20034;-78
2022/01/02 07:23:06;;;;;;;3.67;2.25;;;-5.80;93.30;;;;;;4994638;28;20109;-80
2022/01/02 07:25:32;;;;;;;7.32;2.58;;;-5.70;93.20;;;;;;4992554;28;20475;-79
2022/01/02 07:27:58;;;;;;;8.82;2.35;;;-5.70;93.30;;;;;;4992556;28;20027;-80
2022/01/02 07:30:24;;;;;;;6.32;3.60;;;-5.70;93.30;;;;;;4992519;28;20022;-80
2022/01/02 07:32:50;;;;;;;4.15;2.08;;;-5.70;93.60;;;;;;4992598;28;20392;-79
2022/01/02 07:35:16;;;;;;;3.85;2.03;;;-5.60;93.90;;;;;;4992829;28;20032;-79
2022/01/02 07:37:42;;;;;;;3.88;3.38;;;-5.50;94.10;;;;;;4992413;28;20057;-80
2022/01/02 07:40:08;;;;;;;5.18;2.90;;;-5.50;94.40;;;;;;4992109;28;20133;-79
2022/01/02 07:42:34;;;;;;;8.15;3.78;;;-5.50;94.20;;;;;;4993993;28;20029;-81
2022/01/02 07:45:00;;;;;;;5.18;2.85;;;-5.40;94.00;;;;;;4994435;28;20030;-79
2022/01/02 07:47:26;;;;;;;4.97;2.92;;;-5.40;93.60;;;;;;4996036;28;20030;-80
2022/01/02 07:49:51;;;;;;;4.57;2.83;;;-5.40;93.40;;;;;;4996033;28;20080;-81
2022/01/02 07:52:17;;;;;;;6.03;2.50;;;-5.40;93.40;;;;;;5012423;28;20121;-80
2022/01/02 07:54:43;;;;;;;4.97;3.05;;;-5.30;93.40;;;;;;4995886;28;20098;-80
2022/01/02 07:57:09;;;;;;;4.80;2.15;;;-5.30;93.30;;;;;;4995557;28;20034;-80
2022/01/02 07:59:35;;;;;;;3.00;2.17;;;-5.30;93.30;;;;;;5010597;28;20069;-80
2022/01/02 08:02:01;;;;;;;3.72;2.50;;;-5.30;93.40;;;;;;4995406;28;20054;-80
2022/01/02 08:04:27;;;;;;;3.30;2.35;;;-5.30;93.10;;;;;;4995496;28;20061;-79
2022/01/02 08:06:53;;;;;;;3.13;1.90;;;-5.40;93.10;;;;;;4995495;28;20026;-80
2022/01/02 08:09:19;;;;;;;7.50;3.40;;;-5.40;93.30;;;;;;4995375;28;20052;-79
2022/01/02 08:11:45;;;;;;;2.00;1.67;;;-5.40;93.60;;;;;;4995638;28;20110;-80
2022/01/02 08:14:11;;;;;;;8.02;3.50;;;-5.40;93.10;;;;;;4995532;28;20116;-81
2022/01/02 08:16:37;;;;;;;5.87;3.83;;;-5.50;93.20;;;;;;4995232;28;20029;-81
2022/01/02 08:19:05;;;;;;;4.25;2.97;;;-5.50;93.30;;;;;;4994007;28;20030;-81
2022/01/02 08:21:32;;;;;;;5.78;3.33;;;-5.40;93.70;;;;;;4995425;28;20038;-80
2022/01/02 08:23:57;;;;;;;6.57;3.20;;;-5.40;94.00;;;;;;4995720;28;20019;-80
2022/01/02 08:26:23;;;;;;;3.95;2.22;;;-5.40;93.70;;;;;;4995543;28;20390;-80
2022/01/02 08:28:50;;;;;;;5.72;3.53;;;-5.40;93.80;;;;;;4995198;28;20031;-80
2022/01/02 08:31:16;;;;;;;4.93;2.55;;;-5.40;93.50;;;;;;4995717;28;20048;-80
2022/01/02 08:33:42;;;;;;;6.57;3.13;;;-5.40;93.10;;;;;;4994696;28;20034;-80
2022/01/02 08:36:08;;;;;;;4.97;3.30;;;-5.50;93.00;;;;;;4997463;28;20049;-81
2022/01/02 08:38:34;;;;;;;5.78;2.83;;;-5.50;93.10;;;;;;5001451;28;20042;-79
2022/01/02 08:41:00;;;;;;;3.33;2.33;;;-5.50;93.10;;;;;;5005354;28;20092;-80
2022/01/02 08:43:26;;;;;;;3.95;2.95;;;-5.50;92.60;;;;;;5006513;28;20019;-80
2022/01/02 08:45:51;;;;;;;4.03;2.17;;;-5.50;92.60;;;;;;5005261;28;20037;-78
2022/01/02 08:48:17;;;;;;;5.68;3.50;;;-5.50;92.50;;;;;;4998524;28;20118;-81
2022/01/02 08:50:43;;;;;;;9.00;3.22;;;-5.50;92.70;;;;;;4996669;28;20030;-81
2022/01/02 08:53:09;;;;;;;5.05;2.42;;;-5.40;92.90;;;;;;4994804;28;20109;-81
2022/01/02 08:55:35;;;;;;;4.18;2.25;;;-5.40;92.80;;;;;;4996071;28;20118;-80
2022/01/02 08:58:01;;;;;;;4.97;2.67;;;-5.40;92.30;;;;;;5001652;28;20018;-79
2022/01/02 09:00:27;;;;;;;5.68;2.47;;;-5.40;92.30;;;;;;5007296;28;20126;-80
2022/01/02 09:02:53;;;;;;;3.35;1.88;;;-5.40;91.80;;;;;;4994729;28;20086;-79
2022/01/02 09:05:19;;;;;;;7.13;1.88;;;-5.50;91.90;;;;;;4994653;28;20026;-81
2022/01/02 09:07:45;;;;;;;6.80;2.15;;;-5.50;91.90;;;;;;4996458;28;20022;-79
2022/01/02 09:10:12;;;;;;;4.43;3.65;;;-5.50;92.10;;;;;;4995246;28;20026;-80
2022/01/02 09:12:37;;;;;;;4.35;2.55;;;-5.50;91.80;;;;;;4994778;28;20107;-80
2022/01/02 09:15:03;;;;;;;3.47;1.80;;;-5.50;91.60;;;;;;4996975;28;20084;-79
2022/01/02 09:17:29;;;;;;;4.45;2.80;;;-5.50;91.50;;;;;;4996158;28;20025;-80
2022/01/02 09:19:57;;;;;;;3.58;2.38;;;-5.40;91.70;;;;;;4994473;28;20069;-83
2022/01/02 09:22:23;;;;;;;3.45;2.80;;;-5.50;91.30;;;;;;4994167;28;20027;-81
2022/01/02 09:24:48;;;;;;;2.88;2.17;;;-5.50;91.10;;;;;;4994672;28;20029;-81
2022/01/02 09:27:14;;;;;;;3.83;2.65;;;-5.50;91.20;;;;;;4999532;28;20030;-79
2022/01/02 09:29:40;;;;;;;2.55;2.15;;;-5.40;91.10;;;;;;5010940;28;20031;-81
2022/01/02 09:32:06;;;;;;;2.25;2.05;;;-5.50;91.30;;;;;;4994025;28;20101;-82
2022/01/02 09:34:32;;;;;;;5.03;3.30;;;-5.40;91.10;;;;;;4994376;28;20116;-80
2022/01/02 09:36:58;;;;;;;4.40;2.67;;;-5.30;91.40;;;;;;4993758;28;20459;-80
2022/01/02 09:39:24;;;;;;;4.97;3.20;;;-5.30;91.30;;;;;;4993656;28;20074;-81
2022/01/02 09:41:50;;;;;;;3.78;2.67;;;-5.30;91.20;;;;;;4993566;28;20435;-82
2022/01/02 09:44:16;;;;;;;3.42;1.95;;;-5.30;91.10;;;;;;4993464;28;20248;-80
2022/01/02 09:46:42;;;;;;;6.85;2.95;;;-5.30;90.40;;;;;;4992247;28;20030;-81
2022/01/02 09:49:09;;;;;;;5.20;2.10;;;-5.30;90.70;;;;;;4993682;28;20022;-80
2022/01/02 09:51:35;;;;;;;4.25;2.15;;;-5.40;90.70;;;;;;4992135;28;20027;-80
2022/01/02 09:54:01;;;;;;;4.93;2.80;;;-5.30;90.80;;;;;;4993385;28;20161;-79
2022/01/02 09:56:27;;;;;;;4.07;2.88;;;-5.20;90.90;;;;;;4993714;28;20030;-80
2022/01/02 09:58:53;;;;;;;2.42;1.90;;;-5.30;90.90;;;;;;4992220;28;20029;-80
2022/01/02 10:01:18;;;;;;;3.42;2.60;;;-5.30;90.40;;;;;;4992053;28;20042;-80
2022/01/02 10:03:50;;;;;;;6.03;2.63;;;-5.30;90.10;;;;;;4993229;28;20022;-80
2022/01/02 10:06:17;;;;;;;3.35;2.20;;;-5.40;89.80;;;;;;4993586;28;20061;-81
2022/01/02 10:08:43;;;;;;;3.28;2.60;;;-5.40;90.40;;;;;;4993303;28;20023;-80
2022/01/02 10:11:18;;;;;;;6.38;2.80;;;-5.40;90.70;;;;;;4993522;28;20361;-83
2022/01/02 10:14:02;;;;;;;2.33;1.80;;;-5.40;90.60;;;;;;4993289;28;20524;-81
2022/01/02 10:16:36;;;;;;;5.57;2.85;;;-5.40;90.50;;;;;;4991969;28;20026;-81
2022/01/02 10:19:21;;;;;;;2.97;2.28;;;-5.40;89.80;;;;;;4994329;28;20472;-80
2022/01/02 10:22:04;;;;;;;4.07;2.83;;;-5.50;90.10;;;;;;4993380;28;20121;-80
2022/01/02 10:24:36;;;;;;;3.75;2.22;;;-5.40;90.20;;;;;;4992877;28;20033;-81
2022/01/02 10:27:13;;;;;;;2.67;2.47;;;-5.40;90.00;;;;;;4993866;28;20440;-80
2022/01/02 10:29:44;;;;;;;3.90;2.58;;;-5.40;89.90;;;;;;4993037;28;20030;-81
2022/01/02 10:32:27;;;;;;;4.03;2.03;;;-5.40;88.90;;;;;;4993395;28;20503;-80
2022/01/02 10:35:12;;;;;;;5.38;2.50;;;-5.40;89.20;;;;;;4992227;28;20468;-81
2022/01/02 10:37:40;;;;;;;3.92;2.13;;;-5.40;89.40;;;;;;4992646;28;20054;-80
2022/01/02 10:40:30;;;;;;;3.75;2.55;;;-5.40;89.90;;;;;;4991435;28;20046;-80
2022/01/02 10:42:58;;;;;;;4.93;2.45;;;-5.40;89.40;;;;;;4993572;28;20483;-80
2022/01/02 10:45:39;;;;;;;5.53;2.05;;;-5.40;88.80;;;;;;4994906;28;20036;-83
2022/01/02 10:48:08;;;;;;;1.83;1.48;;;-5.40;89.20;;;;;;4996981;28;20038;-81
2022/01/02 10:50:35;;;;;;;5.10;2.83;;;-5.40;89.80;;;;;;5005012;28;20023;-82
2022/01/02 10:53:17;;;;;;;6.55;2.85;;;-5.30;89.30;;;;;;5001801;28;20022;-80
2022/01/02 10:55:45;;;;;;;7.13;2.53;;;-5.40;88.70;;;;;;5005688;28;20031;-81
2022/01/02 10:58:12;;;;;;;3.08;1.98;;;-5.40;89.40;;;;;;5010274;28;20045;-80
2022/01/02 11:00:38;;;;;;;4.28;2.40;;;-5.40;89.70;;;;;;4997624;28;20041;-80
2022/01/02 11:03:06;;;;;;;4.20;2.17;;;-5.40;90.00;;;;;;4994870;28;20026;-81
2022/01/02 11:05:35;;;;;;;4.25;3.03;;;-5.40;89.70;;;;;;4993346;28;20034;-82
2022/01/02 11:08:02;;;;;;;6.28;2.42;;;-5.40;89.40;;;;;;4993939;28;20420;-81
2022/01/02 11:10:31;;;;;;;3.35;2.00;;;-5.50;88.80;;;;;;4993229;28;20026;-81
2022/01/02 11:12:58;;;;;;;2.65;2.20;;;-5.40;89.00;;;;;;4992886;28;20567;-82
2022/01/02 11:15:25;;;;;;;7.15;2.28;;;-5.50;88.00;;;;;;4993474;28;20372;-79
2022/01/02 11:17:52;;;;;;;3.67;2.10;;;-5.50;87.40;;;;;;5011546;28;20041;-81
2022/01/02 11:20:26;;;;;;;3.13;2.30;;;-5.50;87.90;;;;;;4996937;28;20038;-84
2022/01/02 11:23:00;;;;;;;4.60;2.10;;;-5.50;88.20;;;;;;4996522;28;20551;-82
2022/01/02 11:25:33;;;;;;;3.10;2.55;;;-5.50;88.00;;;;;;4996411;28;20403;-79
2022/01/02 11:28:05;;;;;;;4.80;3.15;;;-5.50;87.90;;;;;;4998028;28;20038;-81
2022/01/02 11:30:32;;;;;;;6.82;2.40;;;-5.50;88.20;;;;;;5000851;28;20033;-82
2022/01/02 11:33:16;;;;;;;2.72;1.92;;;-5.50;88.50;;;;;;5000257;28;20022;-80
2022/01/02 11:35:44;;;;;;;2.40;1.30;;;-5.50;88.90;;;;;;5016561;28;20038;-80
2022/01/02 11:38:11;;;;;;;4.43;1.80;;;-5.50;89.40;;;;;;4997391;28;20073;-80
2022/01/02 11:40:44;;;;;;;2.15;1.95;;;-5.50;88.80;;;;;;4997267;28;20042;-81
2022/01/02 11:43:10;;;;;;;7.97;2.63;;;-5.60;87.50;;;;;;4996057;28;20022;-82
2022/01/02 11:45:39;;;;;;;3.17;2.17;;;-5.60;88.20;;;;;;4996083;28;20034;-82
2022/01/02 11:48:26;;;;;;;5.40;3.08;;;-5.50;88.50;;;;;;4996174;28;20026;-82
2022/01/02 11:50:53;;;;;;;3.60;2.15;;;-5.50;88.50;;;;;;4995932;28;20092;-81
2022/01/02 11:53:28;;;;;;;2.35;1.92;;;-5.50;88.10;;;;;;4995667;28;20048;-79
2022/01/02 11:55:54;;;;;;;3.63;2.88;;;-5.50;88.80;;;;;;4995858;28;20023;-81
2022/01/02 11:58:38;;;;;;;2.80;2.17;;;-5.40;88.20;;;;;;4995634;28;20027;-81
2022/01/02 12:01:06;;;;;;;4.18;3.22;;;-5.40;88.00;;;;;;4995668;28;20042;-81
2022/01/02 12:03:38;;;;;;;4.15;2.13;;;-5.40;87.90;;;;;;4995006;28;20057;-80
2022/01/02 12:06:24;;;;;;;6.75;2.47;;;-5.40;88.40;;;;;;5001359;28;20030;-82
2022/01/02 12:08:52;;;;;;;4.50;2.40;;;-5.40;88.30;;;;;;4996598;28;20057;-80
2022/01/02 12:11:38;;;;;;;4.68;2.72;;;-5.40;87.90;;;;;;4995289;28;20054;-82
2022/01/02 12:14:06;;;;;;;2.92;2.55;;;-5.40;88.60;;;;;;4995324;28;20088;-80
2022/01/02 12:16:34;;;;;;;4.80;2.60;;;-5.50;88.60;;;;;;4994969;28;20022;-81
2022/01/02 12:19:02;;;;;;;4.75;3.28;;;-5.50;88.40;;;;;;4993993;28;20061;-81
2022/01/02 12:21:31;;;;;;;;;;;-5.50;89.00;;;;;;4995337;28;20077;-83
2022/01/02 12:23:57;;;;;;;2.22;1.80;;;-5.50;89.40;;;;;;4994844;28;19952;-80
2022/01/02 12:26:32;;;;;;;3.70;2.47;;;-5.50;89.40;;;;;;4995082;28;20046;-81
2022/01/02 12:29:06;;;;;;;3.05;1.98;;;-5.50;89.40;;;;;;4995638;28;20026;-83
2022/01/02 12:31:38;;;;;;;3.20;2.47;;;-5.40;89.30;;;;;;4995955;28;20032;-81
2022/01/02 12:34:18;;;;;;;7.53;3.13;;;-5.50;88.30;;;;;;4995413;28;20076;-81
2022/01/02 12:36:50;;;;;;;3.58;1.88;;;-5.50;88.20;;;;;;4995465;28;20030;-81
2022/01/02 12:39:27;;;;;;;3.50;2.42;;;-5.50;88.60;;;;;;4994395;28;20055;-81
2022/01/02 12:41:53;;;;;;;4.80;2.75;;;-5.50;87.60;;;;;;4994738;28;20049;-81
2022/01/02 12:44:29;;;;;;;2.05;1.77;;;-5.50;88.00;;;;;;4994586;28;20111;-82
2022/01/02 12:46:57;;;;;;;5.70;3.15;;;-5.50;87.10;;;;;;4994217;28;20023;-80
2022/01/02 12:49:26;;;;;;;2.15;1.95;;;-5.50;87.40;;;;;;4995698;28;20098;-81
2022/01/02 12:52:06;;;;;;;4.90;2.83;;;-5.50;88.20;;;;;;4993957;28;20022;-82
2022/01/02 12:54:36;;;;;;;6.97;2.78;;;-5.60;88.10;;;;;;4996511;28;20062;-81
2022/01/02 12:57:11;;;;;;;3.00;2.00;;;-5.60;87.90;;;;;;5006127;28;20209;-79
2022/01/02 12:59:59;;;;;;;3.17;1.95;;;-5.60;88.00;;;;;;5009685;28;20495;-81